Time;durP1;ratioP1;P1;durP2;ratioP2;P2;SDS_P1;SDS_P2;PMS_P1;PMS_P2;Temp;Humidity;BMP_temperature;BMP_pressure;BME280_temperature;BME280_humidity;BME280_pressure;Samples;Min_cycle;Max_cycle;Signal;HPM_P1;HPM_P2
2022/05/21 00:01:43;;;;;;;13.75;6.75;;;11.30;99.90;;;;;;5035058;28;20045;-64
2022/05/21 00:04:09;;;;;;;13.52;6.15;;;11.40;99.90;;;;;;5004604;28;20037;-65
2022/05/21 00:06:34;;;;;;;15.35;7.28;;;11.40;99.90;;;;;;5038796;28;20033;-65
2022/05/21 00:09:00;;;;;;;15.05;7.43;;;11.30;99.90;;;;;;5022737;28;20045;-64
2022/05/21 00:11:25;;;;;;;21.98;8.63;;;11.50;99.90;;;;;;5021754;28;20037;-64
2022/05/21 00:13:54;;;;;;;16.08;8.93;;;11.50;99.90;;;;;;5037733;28;20045;-64
2022/05/21 00:16:19;;;;;;;16.27;9.02;;;11.30;99.90;;;;;;5038955;28;20048;-65
2022/05/21 00:18:46;;;;;;;16.65;9.48;;;11.30;99.90;;;;;;5038232;28;20045;-64
2022/05/21 00:21:12;;;;;;;14.95;8.95;;;11.50;99.90;;;;;;5020637;28;20430;-65
2022/05/21 00:23:38;;;;;;;19.08;9.32;;;11.50;99.90;;;;;;5037082;28;20045;-64
2022/05/21 00:26:10;;;;;;;16.92;10.13;;;11.60;99.90;;;;;;5034552;28;20053;-65
2022/05/21 00:28:38;;;;;;;16.42;10.50;;;11.50;99.90;;;;;;5034004;28;20046;-66
2022/05/21 00:31:04;;;;;;;20.33;11.65;;;11.50;99.90;;;;;;5018389;28;20129;-64
2022/05/21 00:33:31;;;;;;;19.20;10.82;;;11.50;99.90;;;;;;5033575;28;20092;-65
2022/05/21 00:35:57;;;;;;;23.58;12.20;;;11.50;99.90;;;;;;5034071;28;20052;-65
2022/05/21 00:38:23;;;;;;;23.90;12.10;;;11.40;99.90;;;;;;5019980;28;20038;-65
2022/05/21 00:40:50;;;;;;;19.85;12.88;;;11.50;99.90;;;;;;5018298;28;20042;-65
2022/05/21 00:43:49;;;;;;;21.05;13.27;;;11.60;99.90;;;;;;5018163;28;20104;-64
2022/05/21 00:46:16;;;;;;;24.98;14.52;;;11.50;99.90;;;;;;5043859;28;20033;-65
2022/05/21 00:48:44;;;;;;;26.02;14.55;;;11.50;99.90;;;;;;5037693;28;20064;-65
2022/05/21 00:51:16;;;;;;;22.20;15.25;;;11.70;99.90;;;;;;5037882;28;20046;-65
2022/05/21 00:53:43;;;;;;;27.33;16.00;;;11.50;99.90;;;;;;5036122;28;20045;-65
2022/05/21 00:56:11;;;;;;;26.33;16.80;;;11.70;99.90;;;;;;5019687;28;20407;-65
2022/05/21 01:01:22;;;;;;;31.15;17.85;;;11.80;99.90;;;;;;5035451;28;20499;-65
2022/05/21 01:03:48;;;;;;;28.80;17.85;;;11.70;99.90;;;;;;5037054;28;20065;-65
2022/05/21 01:06:15;;;;;;;31.85;19.13;;;12.00;99.90;;;;;;5037296;28;20046;-65
2022/05/21 01:08:40;;;;;;;31.17;18.48;;;11.90;99.90;;;;;;5054682;28;20033;-64
2022/05/21 01:11:11;;;;;;;33.80;20.17;;;;;;;;;;5036009;28;20501;-65
2022/05/21 01:13:40;;;;;;;33.67;20.25;;;12.00;99.90;;;;;;5035365;28;20041;-64
2022/05/21 01:16:05;;;;;;;36.53;20.83;;;12.00;99.90;;;;;;5037693;28;20034;-64
2022/05/21 01:18:31;;;;;;;37.92;21.02;;;12.10;99.90;;;;;;5037521;28;20091;-65
2022/05/21 01:20:59;;;;;;;35.15;21.10;;;12.10;99.90;;;;;;5037376;28;20072;-64
2022/05/21 01:23:26;;;;;;;41.20;22.48;;;12.30;99.90;;;;;;5052149;28;20073;-65
2022/05/21 01:25:53;;;;;;;33.22;21.45;;;12.00;99.90;;;;;;5049943;28;20084;-64
2022/05/21 01:28:22;;;;;;;44.95;22.90;;;12.10;99.90;;;;;;5039876;28;20041;-64
2022/05/21 01:31:00;;;;;;;40.67;22.13;;;12.10;99.90;;;;;;5039451;28;20076;-64
2022/05/21 01:33:31;;;;;;;36.75;23.27;;;12.00;99.90;;;;;;5039899;28;20072;-64
2022/05/21 01:35:58;;;;;;;38.83;21.90;;;12.20;99.90;;;;;;5023552;28;20041;-65
2022/05/21 01:38:24;;;;;;;42.33;23.65;;;12.20;99.90;;;;;;5056577;28;20040;-65
2022/05/21 01:40:50;;;;;;;41.40;23.40;;;12.30;99.90;;;;;;5055147;28;20554;-64
2022/05/21 01:46:01;;;;;;;41.42;23.73;;;12.10;99.90;;;;;;5039655;28;20049;-65
2022/05/21 01:48:29;;;;;;;40.72;22.02;;;12.30;99.90;;;;;;5038152;28;20033;-64
2022/05/21 01:50:55;;;;;;;37.75;21.77;;;12.30;99.90;;;;;;5037847;28;20480;-64
2022/05/21 01:53:23;;;;;;;35.25;21.30;;;12.60;99.90;;;;;;5056607;28;20040;-64
2022/05/21 01:55:50;;;;;;;35.58;20.70;;;12.30;99.90;;;;;;5057844;28;20483;-64
2022/05/21 01:58:16;;;;;;;32.08;19.20;;;12.40;99.90;;;;;;5055809;28;20079;-64
2022/05/21 02:00:43;;;;;;;38.72;20.70;;;12.20;99.90;;;;;;5055621;28;20045;-64
2022/05/21 02:03:10;;;;;;;37.53;20.75;;;12.40;99.90;;;;;;5038271;28;20483;-64
2022/05/21 02:05:36;;;;;;;34.10;16.92;;;12.40;99.90;;;;;;5056344;28;20048;-64
2022/05/21 02:08:02;;;;;;;37.42;18.25;;;12.30;99.90;;;;;;5056208;28;20411;-65
2022/05/21 02:10:28;;;;;;;38.97;18.25;;;12.30;99.90;;;;;;5057025;28;20041;-65
2022/05/21 02:12:54;;;;;;;35.97;19.13;;;12.50;99.90;;;;;;5039761;28;20555;-64
2022/05/21 02:15:19;;;;;;;31.65;16.40;;;12.50;99.90;;;;;;5055590;28;20041;-65
2022/05/21 02:17:45;;;;;;;29.92;16.30;;;12.50;99.90;;;;;;5057640;28;20037;-64
2022/05/21 02:20:11;;;;;;;33.70;16.85;;;12.40;99.90;;;;;;5039336;28;20083;-65
2022/05/21 02:22:37;;;;;;;35.00;16.85;;;;;;;;;;5055228;28;20112;-65
2022/05/21 02:25:07;;;;;;;26.33;15.77;;;12.60;99.90;;;;;;5056349;28;20049;-65
2022/05/21 02:27:33;;;;;;;29.00;15.02;;;12.60;99.90;;;;;;5038375;28;20051;-65
2022/05/21 02:29:59;;;;;;;25.83;15.05;;;12.50;99.90;;;;;;5056491;28;20033;-65
2022/05/21 02:32:25;;;;;;;29.13;15.60;;;12.50;99.90;;;;;;5055672;28;20044;-65
2022/05/21 02:34:50;;;;;;;31.42;15.38;;;12.40;99.90;;;;;;5057310;28;20029;-64
2022/05/21 02:40:00;;;;;;;31.70;13.90;;;12.40;99.90;;;;;;5038516;28;20507;-64
2022/05/21 02:42:45;;;;;;;27.05;12.70;;;12.50;99.90;;;;;;5038148;28;20075;-64
2022/05/21 02:45:14;;;;;;;24.15;11.02;;;12.60;99.90;;;;;;5037587;28;20090;-64
2022/05/21 02:47:40;;;;;;;23.33;10.55;;;12.70;99.90;;;;;;5038617;28;20044;-65
2022/05/21 02:50:07;;;;;;;23.77;9.25;;;12.60;99.90;;;;;;5038862;28;20045;-65
2022/05/21 02:52:32;;;;;;;25.10;8.32;;;12.60;99.90;;;;;;5039763;28;20029;-65
2022/05/21 02:54:58;;;;;;;21.85;8.00;;;;;;;;;;5038767;28;20467;-64
2022/05/21 02:57:25;;;;;;;23.25;7.25;;;12.70;99.90;;;;;;5055811;28;20406;-64
2022/05/21 02:59:51;;;;;;;21.85;6.45;;;12.80;99.90;;;;;;5054223;28;20041;-65
2022/05/21 03:02:18;;;;;;;20.00;6.95;;;;;;;;;;5039466;28;20052;-65
2022/05/21 03:04:44;;;;;;;24.58;6.82;;;13.00;99.90;;;;;;5039638;28;20048;-64
2022/05/21 03:07:10;;;;;;;19.98;5.93;;;12.90;99.90;;;;;;5056661;28;20116;-65
2022/05/21 03:12:21;;;;;;;16.87;5.63;;;;;;;;;;5056358;28;20510;-64
2022/05/21 03:14:46;;;;;;;24.55;7.75;;;12.90;99.90;;;;;;5055655;28;20056;-65
2022/05/21 03:17:12;;;;;;;19.33;5.60;;;12.90;99.90;;;;;;5021202;28;20128;-65
2022/05/21 03:19:38;;;;;;;23.35;6.65;;;12.90;99.90;;;;;;5038249;28;20163;-65
2022/05/21 03:22:04;;;;;;;18.35;5.68;;;13.00;99.90;;;;;;5054773;28;20052;-64
2022/05/21 03:24:30;;;;;;;26.52;5.85;;;13.00;99.90;;;;;;5056161;28;20542;-64
2022/05/21 03:26:57;;;;;;;25.52;5.97;;;;;;;;;;5055420;28;20051;-64
2022/05/21 03:29:23;;;;;;;21.80;6.00;;;13.00;99.90;;;;;;5055383;28;20112;-65
2022/05/21 03:31:49;;;;;;;15.82;4.65;;;13.00;99.90;;;;;;5055897;28;20483;-65
2022/05/21 03:34:14;;;;;;;18.85;6.28;;;13.10;99.90;;;;;;5054858;28;20052;-65
2022/05/21 03:36:40;;;;;;;26.27;6.22;;;12.90;99.90;;;;;;5056515;28;20120;-65
2022/05/21 03:39:06;;;;;;;24.63;5.45;;;13.00;99.90;;;;;;5059231;28;20465;-64
2022/05/21 03:41:32;;;;;;;21.30;5.00;;;13.10;99.90;;;;;;5040677;28;20130;-65
2022/05/21 03:43:58;;;;;;;18.63;4.95;;;13.10;99.90;;;;;;5038344;28;20483;-65
2022/05/21 03:46:24;;;;;;;22.15;5.00;;;13.10;99.90;;;;;;5056205;28;20040;-65
2022/05/21 03:48:50;;;;;;;15.57;5.07;;;13.20;99.90;;;;;;5056105;28;20442;-65
2022/05/21 03:51:16;;;;;;;24.80;5.07;;;13.00;99.90;;;;;;5054915;28;20050;-65
2022/05/21 03:53:41;;;;;;;14.27;4.05;;;13.10;99.90;;;;;;5038063;28;20534;-65
2022/05/21 03:56:07;;;;;;;18.23;4.43;;;13.20;99.90;;;;;;5056221;28;20040;-65
2022/05/21 03:58:33;;;;;;;15.57;4.10;;;13.20;99.90;;;;;;5038429;28;20125;-65
2022/05/21 04:00:59;;;;;;;14.77;3.67;;;13.10;99.90;;;;;;5056110;28;20120;-65
2022/05/21 04:03:25;;;;;;;12.70;4.03;;;13.20;99.90;;;;;;5037868;28;20044;-65
2022/05/21 04:05:54;;;;;;;17.40;3.95;;;13.10;99.90;;;;;;5054660;28;20048;-65
2022/05/21 04:08:20;;;;;;;16.20;3.72;;;13.10;99.90;;;;;;5054478;28;20029;-65
2022/05/21 04:10:47;;;;;;;15.55;5.35;;;13.00;99.90;;;;;;5054453;28;20090;-65
2022/05/21 04:13:12;;;;;;;15.10;4.53;;;13.20;99.90;;;;;;5037791;28;20076;-65
2022/05/21 04:15:38;;;;;;;18.33;5.97;;;13.10;99.90;;;;;;5036661;28;20072;-65
2022/05/21 04:18:03;;;;;;;18.60;5.20;;;13.10;99.90;;;;;;5035869;28;20038;-65
2022/05/21 04:20:29;;;;;;;13.05;4.68;;;13.10;99.90;;;;;;5035560;28;20587;-64
2022/05/21 04:22:55;;;;;;;14.57;4.03;;;;;;;;;;5034659;28;20048;-64
2022/05/21 04:25:21;;;;;;;15.85;4.13;;;13.20;99.90;;;;;;5032759;28;20057;-64
2022/05/21 04:27:47;;;;;;;14.77;4.25;;;13.20;99.90;;;;;;5051276;28;20041;-64
2022/05/21 04:30:28;;;;;;;17.77;4.50;;;13.10;99.90;;;;;;5050256;28;20045;-64
2022/05/21 04:32:54;;;;;;;25.08;4.43;;;13.20;99.90;;;;;;5029975;28;20050;-64
2022/05/21 04:35:20;;;;;;;19.83;4.28;;;13.20;99.90;;;;;;5048449;28;20083;-65
2022/05/21 04:37:46;;;;;;;17.02;4.47;;;13.30;99.90;;;;;;5047955;28;20041;-64
2022/05/21 04:40:21;;;;;;;15.88;4.28;;;13.30;99.90;;;;;;5029854;28;20387;-64
2022/05/21 04:42:47;;;;;;;15.48;4.00;;;;;;;;;;5048018;28;20040;-64
2022/05/21 04:45:14;;;;;;;16.02;4.07;;;13.10;99.90;;;;;;5047671;28;20753;-64
2022/05/21 04:47:40;;;;;;;19.38;4.13;;;13.20;99.90;;;;;;5047769;28;20114;-64
2022/05/21 04:50:08;;;;;;;13.60;3.58;;;13.10;99.90;;;;;;5047653;28;20487;-64
2022/05/21 04:52:35;;;;;;;24.75;5.30;;;13.20;99.90;;;;;;5048314;28;20053;-64
2022/05/21 04:55:02;;;;;;;19.00;3.90;;;13.10;99.90;;;;;;5048268;28;20060;-64
2022/05/21 04:57:28;;;;;;;16.73;4.80;;;;;;;;;;5029015;28;20077;-64
2022/05/21 04:59:54;;;;;;;17.70;4.13;;;;;;;;;;5047714;28;20075;-64
2022/05/21 05:02:20;;;;;;;15.65;4.10;;;;;;;;;;5037064;28;20072;-65
2022/05/21 05:04:46;;;;;;;17.73;3.72;;;;;;;;;;5044620;28;20041;-65
2022/05/21 05:07:12;;;;;;;16.35;3.75;;;;;;;;;;5026693;28;20123;-65
2022/05/21 05:09:42;;;;;;;18.40;4.35;;;13.20;99.90;;;;;;5044831;28;20079;-67
2022/05/21 05:12:09;;;;;;;18.15;4.18;;;13.40;99.90;;;;;;5045045;28;20048;-66
2022/05/21 05:14:35;;;;;;;16.80;4.40;;;13.40;99.90;;;;;;5031064;28;20590;-66
2022/05/21 05:17:01;;;;;;;17.13;3.85;;;;;;;;;;5030874;28;20053;-65
2022/05/21 05:19:30;;;;;;;18.52;4.05;;;;;;;;;;5049195;28;20052;-66
2022/05/21 05:21:56;;;;;;;22.38;4.32;;;;;;;;;;5013421;28;20087;-65
2022/05/21 05:24:21;;;;;;;18.52;3.30;;;13.50;99.90;;;;;;5029092;28;20124;-67
2022/05/21 05:26:47;;;;;;;16.55;3.38;;;13.40;99.90;;;;;;5032467;28;20057;-67
2022/05/21 05:29:12;;;;;;;16.50;4.97;;;13.40;99.90;;;;;;5032471;28;20095;-66
2022/05/21 05:31:38;;;;;;;17.17;3.88;;;13.40;99.90;;;;;;5032221;28;20098;-66
2022/05/21 05:34:04;;;;;;;15.65;4.60;;;13.50;99.90;;;;;;5032556;28;20076;-66
2022/05/21 05:36:30;;;;;;;20.52;4.70;;;13.40;99.90;;;;;;5032493;28;20081;-66
2022/05/21 05:38:59;;;;;;;12.77;3.72;;;13.40;99.90;;;;;;5032501;28;20046;-66
2022/05/21 05:41:28;;;;;;;12.73;3.70;;;13.60;99.90;;;;;;5028025;28;20509;-66
2022/05/21 05:43:55;;;;;;;20.10;3.55;;;;;;;;;;5025644;28;20041;-66
2022/05/21 05:46:22;;;;;;;18.35;4.00;;;13.50;99.90;;;;;;5018070;28;20037;-66
2022/05/21 05:48:48;;;;;;;17.60;4.18;;;;;;;;;;5044507;28;20044;-66
2022/05/21 05:51:16;;;;;;;14.63;3.47;;;;;;;;;;5025853;28;20064;-66
2022/05/21 05:53:43;;;;;;;23.48;4.40;;;;;;;;;;5043281;28;20809;-67
2022/05/21 05:56:09;;;;;;;16.75;3.83;;;;;;;;;;5044331;28;20049;-66
2022/05/21 06:01:20;;;;;;;14.55;4.07;;;;;;;;;;5005245;28;20132;-65
2022/05/21 06:03:46;;;;;;;16.75;3.45;;;14.10;99.90;;;;;;5024682;28;20072;-67
2022/05/21 06:06:12;;;;;;;10.43;3.00;;;;;;;;;;5029187;28;20052;-65
2022/05/21 06:08:37;;;;;;;14.70;2.90;;;;;;;;;;5042931;28;20813;-66
2022/05/21 06:11:03;;;;;;;16.83;3.25;;;14.20;99.90;;;;;;5046636;28;20044;-65
2022/05/21 06:13:29;;;;;;;15.45;4.20;;;;;;;;;;5048026;28;20059;-65
2022/05/21 06:15:55;;;;;;;15.55;3.65;;;;;;;;;;5046864;28;20040;-65
2022/05/21 06:18:22;;;;;;;14.35;3.75;;;;;;;;;;5046553;28;20052;-65
2022/05/21 06:20:51;;;;;;;16.02;2.85;;;14.10;99.90;;;;;;5048052;28;20049;-66
2022/05/21 06:23:17;;;;;;;23.35;3.83;;;;;;;;;;5047677;28;20061;-65
2022/05/21 06:25:42;;;;;;;19.38;3.33;;;14.30;99.90;;;;;;5015386;28;20079;-65
2022/05/21 06:28:08;;;;;;;16.27;3.72;;;;;;;;;;5026865;28;20034;-66
2022/05/21 06:30:37;;;;;;;13.93;3.22;;;14.50;99.90;;;;;;5027079;28;20045;-65
2022/05/21 06:33:17;;;;;;;10.63;3.28;;;14.30;99.90;;;;;;5027026;28;20075;-65
2022/05/21 06:35:44;;;;;;;14.68;3.28;;;14.30;99.90;;;;;;5005671;28;20041;-65
2022/05/21 06:38:10;;;;;;;12.93;2.80;;;14.50;99.90;;;;;;5021723;28;20153;-65
2022/05/21 06:40:36;;;;;;;13.30;3.13;;;;;;;;;;5032232;28;20414;-65
2022/05/21 06:43:02;;;;;;;15.23;2.95;;;;;;;;;;5040738;28;20041;-65
2022/05/21 06:45:29;;;;;;;12.63;2.78;;;14.60;99.90;;;;;;5041145;28;20041;-65
2022/05/21 06:48:04;;;;;;;11.60;2.90;;;14.70;99.90;;;;;;5041197;28;20102;-65
2022/05/21 06:50:29;;;;;;;10.38;3.13;;;14.90;99.90;;;;;;5034705;28;20375;-65
2022/05/21 06:52:55;;;;;;;10.02;2.40;;;15.20;99.90;;;;;;5042048;28;20105;-65
2022/05/21 06:55:21;;;;;;;8.98;2.90;;;;;;;;;;5024264;28;20044;-65
2022/05/21 06:57:48;;;;;;;14.18;2.55;;;15.10;99.90;;;;;;5038356;28;20090;-67
2022/05/21 07:00:15;;;;;;;12.32;2.17;;;15.20;99.90;;;;;;5018728;28;20045;-69
2022/05/21 07:02:41;;;;;;;9.85;2.33;;;15.40;99.90;;;;;;5037514;28;20064;-67
2022/05/21 07:07:51;;;;;;;7.03;2.22;;;15.40;99.90;;;;;;5041467;28;20052;-66
2022/05/21 07:10:21;;;;;;;11.38;2.38;;;15.60;99.90;;;;;;5043735;28;20037;-67
2022/05/21 07:12:48;;;;;;;7.95;2.03;;;15.40;99.90;;;;;;5045573;28;20033;-68
2022/05/21 07:15:15;;;;;;;10.80;2.25;;;15.50;99.90;;;;;;5033292;28;20076;-65
2022/05/21 07:17:42;;;;;;;16.02;2.63;;;15.60;99.90;;;;;;5009553;28;20053;-65
2022/05/21 07:20:14;;;;;;;12.80;2.17;;;15.50;99.90;;;;;;5045096;28;20025;-65
2022/05/21 07:22:42;;;;;;;12.48;2.08;;;15.50;99.90;;;;;;5052370;28;20168;-65
2022/05/21 07:25:10;;;;;;;10.02;2.35;;;15.60;99.90;;;;;;5038185;28;20410;-65
2022/05/21 07:27:36;;;;;;;7.63;1.60;;;15.50;99.90;;;;;;5035425;28;20047;-64
2022/05/21 07:30:02;;;;;;;13.38;2.10;;;;;;;;;;5052855;28;20391;-66
2022/05/21 07:32:28;;;;;;;8.93;2.17;;;15.50;99.90;;;;;;5036307;28;20037;-65
2022/05/21 07:34:58;;;;;;;7.70;2.10;;;15.50;99.90;;;;;;5054719;28;20114;-66
2022/05/21 07:37:24;;;;;;;13.75;2.70;;;15.80;99.90;;;;;;5040771;28;20038;-65
2022/05/21 07:39:50;;;;;;;7.63;2.60;;;15.80;99.90;;;;;;5034625;28;20406;-64
2022/05/21 07:42:16;;;;;;;10.35;2.40;;;15.70;99.90;;;;;;5034482;28;20037;-64
2022/05/21 07:44:41;;;;;;;8.82;2.28;;;15.80;99.90;;;;;;5034932;28;20049;-64
2022/05/21 07:47:08;;;;;;;8.30;2.15;;;15.60;99.90;;;;;;5033462;28;20130;-64
2022/05/21 07:49:33;;;;;;;9.75;2.25;;;15.70;99.90;;;;;;5054733;28;20421;-65
2022/05/21 07:51:59;;;;;;;9.98;2.40;;;15.80;99.90;;;;;;5049263;28;20049;-64
2022/05/21 07:54:26;;;;;;;13.20;2.88;;;15.70;99.90;;;;;;5018870;28;20057;-64
2022/05/21 07:56:52;;;;;;;11.77;2.50;;;15.70;99.90;;;;;;5052478;28;20087;-65
2022/05/21 07:59:17;;;;;;;12.75;2.28;;;15.70;99.90;;;;;;5036871;28;20065;-68
2022/05/21 08:01:43;;;;;;;14.88;3.78;;;16.00;99.90;;;;;;5033472;28;20041;-64
2022/05/21 08:04:09;;;;;;;11.23;2.80;;;15.80;99.90;;;;;;5026250;28;20041;-65
2022/05/21 08:06:34;;;;;;;10.68;2.22;;;15.90;99.90;;;;;;5039275;28;20037;-65
2022/05/21 08:09:01;;;;;;;7.88;2.25;;;15.80;99.90;;;;;;5018264;28;20049;-65
2022/05/21 08:11:27;;;;;;;15.27;2.88;;;15.90;99.90;;;;;;5046860;28;20114;-64
2022/05/21 08:13:53;;;;;;;11.60;2.15;;;15.90;99.90;;;;;;5015582;28;20045;-65
2022/05/21 08:16:19;;;;;;;13.65;3.95;;;16.00;99.90;;;;;;5025364;28;20051;-64
2022/05/21 08:18:44;;;;;;;11.27;1.95;;;16.10;99.90;;;;;;5048538;28;20045;-65
2022/05/21 08:21:10;;;;;;;8.73;2.17;;;16.10;99.90;;;;;;5023721;28;20045;-65
2022/05/21 08:29:04;;;;;;;8.60;2.20;;;16.20;99.90;;;;;;5025848;28;20494;-64
2022/05/21 08:31:30;;;;;;;13.68;2.50;;;16.00;99.90;;;;;;5053853;28;20045;-63
2022/05/21 08:33:56;;;;;;;7.63;2.45;;;16.10;99.90;;;;;;5035819;28;20067;-64
2022/05/21 08:36:22;;;;;;;11.25;3.45;;;;;;;;;;5053688;28;20041;-64
2022/05/21 08:38:47;;;;;;;8.40;2.17;;;16.30;99.90;;;;;;5053267;28;20106;-64
2022/05/21 08:41:34;;;;;;;8.90;2.15;;;16.60;99.90;;;;;;5035483;28;20537;-64
2022/05/21 08:44:05;;;;;;;10.05;1.95;;;16.30;99.90;;;;;;5053271;28;20060;-64
2022/05/21 08:46:44;;;;;;;9.05;1.80;;;16.50;99.90;;;;;;5035678;28;20399;-63
2022/05/21 08:49:18;;;;;;;11.38;2.50;;;16.60;99.90;;;;;;5052229;28;20060;-64
2022/05/21 08:51:50;;;;;;;9.85;1.98;;;16.80;99.90;;;;;;5053364;28;20109;-63
2022/05/21 08:54:22;;;;;;;9.63;2.28;;;16.90;99.90;;;;;;5041532;28;20133;-64
2022/05/21 08:56:50;;;;;;;8.10;2.28;;;16.80;99.90;;;;;;5048306;28;20061;-65
2022/05/21 08:59:18;;;;;;;6.82;2.33;;;17.10;99.90;;;;;;5048926;28;20394;-65
2022/05/21 09:01:44;;;;;;;11.90;2.22;;;17.00;99.90;;;;;;5051870;28;20044;-65
2022/05/21 09:04:12;;;;;;;7.15;1.70;;;16.60;99.90;;;;;;5034007;28;20037;-64
2022/05/21 09:06:54;;;;;;;9.75;2.50;;;16.60;99.90;;;;;;5048973;28;20037;-65
2022/05/21 09:09:48;;;;;;;9.90;1.95;;;16.60;99.90;;;;;;5052413;28;20044;-65
2022/05/21 09:12:23;;;;;;;7.72;1.63;;;16.70;99.90;;;;;;5050313;28;20533;-64
2022/05/21 09:14:56;;;;;;;10.70;2.45;;;16.50;99.90;;;;;;5033097;28;20049;-65
2022/05/21 09:17:24;;;;;;;13.52;2.40;;;17.00;99.90;;;;;;5051560;28;20045;-65
2022/05/21 09:19:55;;;;;;;14.70;2.38;;;17.10;99.90;;;;;;5033995;28;20045;-65
2022/05/21 09:22:22;;;;;;;11.48;2.70;;;17.10;99.90;;;;;;5033575;28;20049;-65
2022/05/21 09:24:52;;;;;;;13.95;3.17;;;17.10;99.90;;;;;;5051331;28;20057;-65
2022/05/21 09:27:32;;;;;;;7.80;2.00;;;17.20;99.90;;;;;;5033468;28;20080;-64
2022/05/21 09:30:24;;;;;;;10.80;2.45;;;17.30;99.90;;;;;;5034093;28;20091;-65
2022/05/21 09:32:52;;;;;;;9.02;2.00;;;17.30;99.90;;;;;;5032088;28;20116;-65
2022/05/21 09:35:32;;;;;;;9.20;2.45;;;17.50;99.90;;;;;;5050154;28;20041;-64
2022/05/21 09:38:13;;;;;;;8.80;1.73;;;17.50;99.90;;;;;;5033428;28;20060;-66
2022/05/21 09:40:40;;;;;;;9.10;1.77;;;17.30;99.90;;;;;;5051348;28;20077;-66
2022/05/21 09:46:26;;;;;;;11.18;2.08;;;17.10;99.90;;;;;;5049148;28;20049;-66
2022/05/21 09:48:53;;;;;;;7.00;1.90;;;17.10;99.90;;;;;;5049583;28;20498;-65
2022/05/21 09:51:37;;;;;;;10.73;1.70;;;17.00;99.90;;;;;;5050791;28;20063;-66
2022/05/21 09:54:19;;;;;;;7.20;2.25;;;16.90;99.90;;;;;;5050145;28;20037;-65
2022/05/21 09:56:54;;;;;;;11.18;2.03;;;16.90;99.90;;;;;;5128750;27;20440;-64
2022/05/21 09:59:23;;;;;;;8.80;1.85;;;17.00;99.90;;;;;;5129988;27;20039;-64
2022/05/21 10:01:57;;;;;;;9.07;1.88;;;17.10;99.90;;;;;;5128557;28;20040;-64
2022/05/21 10:04:27;;;;;;;8.85;1.92;;;17.10;99.90;;;;;;5129581;27;20550;-64
2022/05/21 10:10:58;;;;;;;8.65;1.95;;;16.90;99.90;;;;;;5128432;28;20130;-65
2022/05/21 10:12:49;;;;;;;5.82;1.63;;;16.80;99.90;;;;;;5112903;28;20047;-64
2022/05/21 10:15:23;;;;;;;8.30;1.98;;;16.80;99.90;;;;;;5128093;28;20500;-64
2022/05/21 10:17:59;;;;;;;9.85;1.95;;;16.80;99.90;;;;;;5129246;27;20504;-64
2022/05/21 10:20:45;;;;;;;10.38;1.88;;;16.80;99.90;;;;;;5118879;28;20760;-63
2022/05/21 10:23:19;;;;;;;12.32;3.25;;;17.10;99.90;;;;;;5123564;27;20091;-66
2022/05/21 10:26:02;;;;;;;9.20;1.83;;;17.10;99.90;;;;;;5107924;28;20094;-66
2022/05/21 10:28:28;;;;;;;9.60;2.03;;;17.30;99.90;;;;;;5129310;28;20039;-65
2022/05/21 10:31:33;;;;;;;7.88;2.13;;;17.20;99.90;;;;;;5108425;28;20516;-65
2022/05/21 10:34:30;;;;;;;12.50;2.13;;;17.30;99.90;;;;;;5100438;28;20039;-65
2022/05/21 10:37:07;;;;;;;10.07;2.25;;;17.50;99.90;;;;;;5098911;28;20068;-65
2022/05/21 10:39:33;;;;;;;10.07;2.30;;;17.50;99.90;;;;;;5096451;27;20561;-65
2022/05/21 10:42:37;;;;;;;13.30;2.55;;;17.70;99.90;;;;;;5095947;28;20039;-65
2022/05/21 10:45:17;;;;;;;9.30;1.80;;;17.60;99.90;;;;;;5090250;27;20052;-65
2022/05/21 10:48:07;;;;;;;6.30;1.75;;;17.40;99.90;;;;;;5080273;28;20413;-65
2022/05/21 10:50:54;;;;;;;8.40;1.88;;;17.70;99.90;;;;;;5097085;28;20055;-65
2022/05/21 10:53:54;;;;;;;7.07;1.40;;;17.40;99.90;;;;;;5112010;27;20083;-65
2022/05/21 10:56:36;;;;;;;7.75;1.70;;;17.70;99.90;;;;;;5116699;28;20134;-65
2022/05/21 10:59:08;;;;;;;7.13;1.80;;;17.70;99.90;;;;;;5109379;27;20056;-66
2022/05/21 11:01:56;;;;;;;8.10;1.92;;;17.40;99.90;;;;;;5099315;28;20040;-64
2022/05/21 11:04:21;;;;;;;10.90;2.22;;;17.70;99.90;;;;;;5116779;28;20042;-65
2022/05/21 11:07:15;;;;;;;8.95;2.47;;;17.40;99.90;;;;;;5112199;28;20911;-65
2022/05/21 11:09:48;;;;;;;10.27;1.88;;;17.60;99.90;;;;;;5084965;28;20489;-66
2022/05/21 11:12:23;;;;;;;14.38;2.22;;;17.50;99.90;;;;;;5088353;27;20051;-65
2022/05/21 11:15:01;;;;;;;8.38;1.90;;;17.20;99.90;;;;;;5124360;27;20078;-65
2022/05/21 11:17:38;;;;;;;8.38;2.10;;;17.70;99.90;;;;;;5123486;27;20047;-67
2022/05/21 11:20:18;;;;;;;12.82;2.63;;;17.60;99.90;;;;;;5089348;27;20044;-66
2022/05/21 11:22:47;;;;;;;8.75;1.95;;;18.20;99.90;;;;;;5104744;27;20035;-66
2022/05/21 11:25:40;;;;;;;10.15;1.83;;;17.60;99.90;;;;;;5101226;27;20136;-66
2022/05/21 11:28:20;;;;;;;8.38;1.65;;;17.70;99.90;;;;;;5091582;27;20471;-66
2022/05/21 11:30:46;;;;;;;7.55;1.75;;;17.80;99.90;;;;;;5100298;28;20039;-66
2022/05/21 11:38:52;;;;;;;7.25;1.92;;;17.50;99.90;;;;;;5100668;28;20047;-65
2022/05/21 11:41:30;;;;;;;10.38;2.50;;;17.60;99.90;;;;;;5101055;27;20057;-65
2022/05/21 11:47:05;;;;;;;12.20;1.90;;;18.10;99.90;;;;;;5086547;28;20051;-66
2022/05/21 11:49:37;;;;;;;8.85;2.38;;;17.80;99.90;;;;;;5099927;28;20043;-66
2022/05/21 11:52:28;;;;;;;10.32;2.42;;;18.00;99.90;;;;;;5087311;28;20044;-66
2022/05/21 11:54:53;;;;;;;9.27;3.33;;;17.90;99.90;;;;;;5078915;28;20056;-66
2022/05/21 11:57:36;;;;;;;9.93;2.65;;;18.00;99.90;;;;;;5088740;27;20059;-66
2022/05/21 12:00:05;;;;;;;8.75;1.70;;;18.30;99.90;;;;;;5104927;28;20036;-68
2022/05/21 12:02:38;;;;;;;10.52;1.95;;;18.20;99.90;;;;;;5069827;28;20504;-68
2022/05/21 12:05:11;;;;;;;9.48;2.17;;;18.30;99.90;;;;;;5099965;28;20086;-68
2022/05/21 12:07:48;;;;;;;8.23;2.05;;;17.90;99.90;;;;;;5084767;28;20105;-67
2022/05/21 12:10:20;;;;;;;11.75;1.92;;;17.90;99.90;;;;;;5102800;27;20043;-68
2022/05/21 12:13:03;;;;;;;8.98;2.28;;;18.00;99.90;;;;;;5101262;28;20074;-68
2022/05/21 12:15:39;;;;;;;13.23;1.70;;;17.90;99.90;;;;;;5099614;27;20035;-69
2022/05/21 12:18:26;;;;;;;6.78;1.63;;;18.30;99.90;;;;;;5082397;28;20069;-69
2022/05/21 12:20:52;;;;;;;10.13;1.95;;;18.00;99.90;;;;;;5091392;27;20047;-68
2022/05/21 12:23:33;;;;;;;11.65;1.63;;;17.90;99.90;;;;;;5091024;28;20035;-68
2022/05/21 12:26:01;;;;;;;8.68;1.75;;;18.00;99.90;;;;;;5092770;27;20035;-68
2022/05/21 12:28:36;;;;;;;6.28;1.67;;;18.10;99.90;;;;;;5088581;28;20100;-68
2022/05/21 12:31:07;;;;;;;7.97;1.42;;;17.90;99.90;;;;;;5094945;28;20036;-68
2022/05/21 12:33:41;;;;;;;8.00;1.65;;;17.90;99.90;;;;;;5089833;28;20046;-68
2022/05/21 12:36:09;;;;;;;6.85;1.60;;;18.20;99.90;;;;;;5087078;28;20044;-67
2022/05/21 12:38:38;;;;;;;8.55;3.15;;;18.20;99.90;;;;;;5088851;27;20048;-68
2022/05/21 12:41:12;;;;;;;11.20;2.35;;;18.10;99.90;;;;;;5089205;28;20435;-68
2022/05/21 12:43:56;;;;;;;6.90;1.40;;;17.60;99.90;;;;;;5090853;27;20147;-68
2022/05/21 12:46:35;;;;;;;7.88;2.15;;;17.50;99.90;;;;;;5089240;28;20071;-68
2022/05/21 12:49:05;;;;;;;9.70;2.33;;;17.60;99.90;;;;;;5090621;28;20100;-68
2022/05/21 12:51:43;;;;;;;7.60;1.83;;;17.60;99.90;;;;;;5084469;28;20036;-68
2022/05/21 12:54:27;;;;;;;11.55;1.70;;;17.50;99.90;;;;;;5091968;28;20092;-68
2022/05/21 12:56:54;;;;;;;7.72;1.77;;;17.40;99.90;;;;;;5090361;28;20647;-68
2022/05/21 12:59:27;;;;;;;9.05;1.60;;;17.50;99.90;;;;;;5086609;28;20048;-68
2022/05/21 13:02:08;;;;;;;10.05;1.73;;;17.80;99.90;;;;;;5092207;28;20831;-68
2022/05/21 13:04:41;;;;;;;11.40;1.77;;;17.80;99.90;;;;;;5090113;28;20047;-68
2022/05/21 13:07:20;;;;;;;7.18;1.58;;;17.80;99.90;;;;;;5084357;28;20610;-68
2022/05/21 13:10:05;;;;;;;8.02;1.67;;;17.70;99.90;;;;;;5088491;28;20050;-67
2022/05/21 13:12:41;;;;;;;;;;;17.80;99.90;;;;;;5090512;27;20590;-67
2022/05/21 13:15:16;;;;;;;6.63;1.00;;;17.90;99.90;;;;;;5095802;28;19930;-68
2022/05/21 13:17:51;;;;;;;7.22;1.00;;;18.20;99.90;;;;;;5100586;28;20064;-68
2022/05/21 13:20:33;;;;;;;8.95;1.15;;;18.50;99.90;;;;;;5101165;28;20473;-68
2022/05/21 13:23:20;;;;;;;6.43;1.20;;;18.20;99.90;;;;;;5100117;28;20047;-68
2022/05/21 13:25:53;;;;;;;8.45;1.40;;;18.40;99.90;;;;;;5101139;28;20151;-68
2022/05/21 13:28:22;;;;;;;7.00;1.33;;;18.40;99.90;;;;;;5117399;27;20047;-68
2022/05/21 13:30:49;;;;;;;7.80;1.38;;;18.50;99.90;;;;;;5112561;27;20078;-68
2022/05/21 13:33:36;;;;;;;3.78;0.90;;;18.60;99.90;;;;;;5078146;28;20506;-69
2022/05/21 13:36:11;;;;;;;4.97;1.33;;;18.60;99.90;;;;;;5082985;28;20156;-68
2022/05/21 13:38:40;;;;;;;6.93;1.45;;;18.70;99.90;;;;;;5087700;28;20027;-68
2022/05/21 13:41:13;;;;;;;8.60;1.33;;;18.60;99.90;;;;;;5083283;27;20294;-68